Time;durP1;ratioP1;P1;durP2;ratioP2;P2;SDS_P1;SDS_P2;PMS_P1;PMS_P2;Temp;Humidity;BMP_temperature;BMP_pressure;BME280_temperature;BME280_humidity;BME280_pressure;Samples;Min_cycle;Max_cycle;Signal;HPM_P1;HPM_P2
2022/05/03 00:00:12;;;;;;;9.63;8.83;;;8.10;99.90;;;;;;5015221;28;20882;-81
2022/05/03 00:02:45;;;;;;;10.82;9.55;;;8.20;99.90;;;;;;5032510;28;20390;-82
2022/05/03 00:05:41;;;;;;;9.90;9.00;;;8.30;99.90;;;;;;5032518;28;20404;-81
2022/05/03 00:08:34;;;;;;;10.77;9.03;;;8.30;99.90;;;;;;5014924;28;20408;-80
2022/05/03 00:11:13;;;;;;;9.70;8.75;;;8.40;99.90;;;;;;5013087;28;20890;-81
2022/05/03 00:14:23;;;;;;;9.82;8.82;;;8.40;99.90;;;;;;5032155;28;20725;-81
2022/05/03 00:17:00;;;;;;;9.75;8.88;;;8.40;99.90;;;;;;4936055;28;20413;-83
2022/05/03 00:19:27;;;;;;;9.27;8.38;;;8.50;99.90;;;;;;5010455;28;20389;-82
2022/05/03 00:22:04;;;;;;;9.23;8.33;;;8.50;99.90;;;;;;5015058;28;20427;-81
2022/05/03 00:24:30;;;;;;;9.73;8.82;;;8.50;99.90;;;;;;5014862;28;20385;-81
2022/05/03 00:27:01;;;;;;;9.27;8.48;;;8.50;99.90;;;;;;5014625;28;20452;-81
2022/05/03 00:29:29;;;;;;;9.13;8.32;;;8.50;99.90;;;;;;5014589;28;20621;-82
2022/05/03 00:32:09;;;;;;;9.80;8.05;;;8.50;99.90;;;;;;5014834;28;20443;-81
2022/05/03 00:34:47;;;;;;;8.82;7.93;;;8.50;99.90;;;;;;5031862;28;20428;-83
2022/05/03 00:37:22;;;;;;;9.13;8.33;;;8.60;99.90;;;;;;5032379;28;20384;-83
2022/05/03 00:39:52;;;;;;;9.13;8.23;;;8.60;99.90;;;;;;5014096;28;20489;-80
2022/05/03 00:42:40;;;;;;;9.50;8.60;;;8.50;99.90;;;;;;5014087;28;20389;-84
2022/05/03 00:45:37;;;;;;;9.43;8.57;;;8.40;99.90;;;;;;5014081;28;20385;-82
2022/05/03 00:49:16;;;;;;;9.88;8.88;;;8.40;99.90;;;;;;5014174;28;20469;-81
2022/05/03 00:52:09;;;;;;;9.00;8.20;;;8.50;99.90;;;;;;5013729;28;20389;-83
2022/05/03 00:54:44;;;;;;;9.63;8.73;;;8.50;99.90;;;;;;5014093;28;20896;-82
2022/05/03 00:58:15;;;;;;;10.45;9.45;;;8.50;99.90;;;;;;5032309;28;20401;-82
2022/05/03 01:00:55;;;;;;;10.98;9.88;;;8.40;99.90;;;;;;4981689;28;20443;-80
2022/05/03 01:03:58;;;;;;;11.57;10.38;;;8.30;99.90;;;;;;5032700;28;20439;-81
2022/05/03 01:06:37;;;;;;;12.65;9.95;;;8.10;99.90;;;;;;5014230;28;20385;-83
2022/05/03 01:09:17;;;;;;;12.27;11.05;;;8.10;99.90;;;;;;5031881;28;20385;-82
2022/05/03 01:12:04;;;;;;;10.77;9.60;;;8.20;99.90;;;;;;5031928;28;20731;-82
2022/05/03 01:14:52;;;;;;;11.95;10.75;;;8.30;99.90;;;;;;5013497;28;20394;-82
2022/05/03 01:17:32;;;;;;;11.77;10.57;;;8.40;99.90;;;;;;5013685;28;20747;-82
2022/05/03 01:20:15;;;;;;;11.40;10.20;;;8.40;99.90;;;;;;5016301;28;20385;-82
2022/05/03 01:23:08;;;;;;;11.40;10.03;;;8.40;99.90;;;;;;5035762;28;20443;-81
2022/05/03 01:25:45;;;;;;;12.20;11.00;;;8.40;99.90;;;;;;5033307;28;20852;-82
2022/05/03 01:28:29;;;;;;;11.73;10.10;;;8.30;99.90;;;;;;5013476;28;20484;-82
2022/05/03 01:31:09;;;;;;;11.18;10.15;;;8.30;99.90;;;;;;5013755;28;20408;-81
2022/05/03 01:33:42;;;;;;;10.50;9.50;;;8.30;99.90;;;;;;5031338;28;20901;-83
2022/05/03 01:36:30;;;;;;;11.35;10.25;;;8.30;99.90;;;;;;5031970;28;20510;-81
2022/05/03 01:43:21;;;;;;;10.87;9.43;;;8.30;99.90;;;;;;4969694;28;20748;-83
2022/05/03 01:46:07;;;;;;;32.63;12.10;;;8.30;99.90;;;;;;4950419;29;20393;-82
2022/05/03 01:52:44;;;;;;;16.90;10.90;;;8.50;99.90;;;;;;4969981;28;20465;-82
2022/05/03 01:55:45;;;;;;;16.90;10.48;;;8.30;99.90;;;;;;4953041;28;20532;-83
2022/05/03 01:58:37;;;;;;;17.10;9.70;;;8.30;99.90;;;;;;4953345;28;20467;-81
2022/05/03 02:01:17;;;;;;;16.15;10.73;;;8.20;99.90;;;;;;4953599;28;20603;-81
2022/05/03 02:04:28;;;;;;;12.23;9.90;;;8.20;99.90;;;;;;4999872;28;20480;-82
2022/05/03 02:07:11;;;;;;;10.10;9.00;;;8.20;99.90;;;;;;4986901;28;20416;-82
2022/05/03 02:09:48;;;;;;;12.73;10.20;;;8.10;99.90;;;;;;5030306;28;20385;-81
2022/05/03 02:12:22;;;;;;;10.02;9.02;;;8.00;99.90;;;;;;5012940;28;20378;-83
2022/05/03 02:14:56;;;;;;;10.98;9.95;;;8.00;99.90;;;;;;5030210;28;20452;-81
2022/05/03 02:18:05;;;;;;;10.57;9.48;;;8.10;99.90;;;;;;5010543;28;20431;-81
2022/05/03 02:21:14;;;;;;;10.55;9.50;;;8.10;99.90;;;;;;5029961;28;20869;-82
2022/05/03 02:24:37;;;;;;;10.35;9.45;;;7.90;99.90;;;;;;5012034;28;20382;-83
2022/05/03 02:29:58;;;;;;;11.40;10.30;;;7.80;99.90;;;;;;5030299;28;20368;-82
2022/05/03 02:33:04;;;;;;;10.13;9.23;;;7.70;99.90;;;;;;5012981;28;20460;-83
2022/05/03 02:35:51;;;;;;;11.35;10.15;;;7.60;99.90;;;;;;5011626;28;20392;-83
2022/05/03 02:38:39;;;;;;;11.45;10.25;;;7.70;99.90;;;;;;5012910;28;20430;-81
2022/05/03 02:41:08;;;;;;;12.30;10.80;;;7.60;99.90;;;;;;5030061;28;20395;-83
2022/05/03 02:43:36;;;;;;;12.35;11.05;;;7.50;99.90;;;;;;5012830;28;20439;-81
2022/05/03 02:46:28;;;;;;;11.93;10.73;;;7.50;99.90;;;;;;5012610;28;20373;-83
2022/05/03 02:49:03;;;;;;;11.95;10.77;;;7.50;99.90;;;;;;4992095;28;20848;-83
2022/05/03 02:51:55;;;;;;;11.65;10.55;;;7.40;99.90;;;;;;5011534;28;20875;-82
2022/05/03 02:54:57;;;;;;;11.75;9.98;;;7.20;99.90;;;;;;5029166;28;20458;-81
2022/05/03 02:57:51;;;;;;;12.32;10.35;;;7.20;99.90;;;;;;5029325;28;20384;-83
2022/05/03 03:04:32;;;;;;;10.82;9.70;;;7.10;99.90;;;;;;4949262;29;20990;-81
2022/05/03 03:14:19;;;;;;;10.35;9.35;;;6.90;99.90;;;;;;5029820;28;20755;-83
2022/05/03 03:21:25;;;;;;;;;;;;;;;;;;;;;
2022/05/03 03:24:25;;;;;;;11.15;9.93;;;6.90;99.90;;;;;;4958762;28;20423;-83
2022/05/03 03:30:15;;;;;;;11.93;10.13;;;7.10;99.90;;;;;;4949151;29;20363;-83
2022/05/03 03:32:56;;;;;;;11.55;10.32;;;7.20;99.90;;;;;;4932808;29;20385;-83
2022/05/03 03:35:51;;;;;;;11.20;10.02;;;7.20;99.90;;;;;;4949016;29;20451;-83
2022/05/03 03:41:33;;;;;;;10.90;9.80;;;7.50;99.90;;;;;;4946904;29;20467;-83
2022/05/03 03:51:52;;;;;;;;;;;;;;;;;;;;;
2022/05/03 03:55:43;;;;;;;12.63;9.73;;;7.60;99.90;;;;;;5029387;28;20389;-83
2022/05/03 03:58:38;;;;;;;17.38;9.73;;;7.70;99.90;;;;;;4855434;29;20399;-83
2022/05/03 04:01:13;;;;;;;18.33;10.38;;;7.70;99.90;;;;;;4879452;29;20473;-83
2022/05/03 04:04:39;;;;;;;17.42;10.25;;;7.80;99.90;;;;;;5031172;28;20385;-83
2022/05/03 04:11:20;;;;;;;10.80;9.52;;;8.20;99.90;;;;;;4949982;28;20749;-82
2022/05/03 04:14:09;;;;;;;11.83;9.97;;;8.30;99.90;;;;;;4954792;28;20438;-83
2022/05/03 04:17:13;;;;;;;;;;;;;;;;;;;;;
2022/05/03 04:20:01;;;;;;;18.48;10.90;;;8.20;99.90;;;;;;5032232;28;20376;-81
2022/05/03 04:32:37;;;;;;;15.38;10.02;;;8.50;99.90;;;;;;4952309;28;20452;-83
2022/05/03 04:39:19;;;;;;;16.98;10.07;;;8.60;99.90;;;;;;4966468;28;20849;-83
2022/05/03 04:42:36;;;;;;;13.35;9.18;;;8.70;99.90;;;;;;4975303;28;20380;-83
2022/05/03 04:52:32;;;;;;;15.20;8.80;;;9.20;99.90;;;;;;5032388;28;20386;-82
2022/05/03 04:58:50;;;;;;;18.00;8.77;;;9.40;99.90;;;;;;5026451;28;20377;-82
2022/05/03 05:05:08;;;;;;;20.75;9.35;;;9.70;99.90;;;;;;4900566;29;20426;-82
2022/05/03 05:11:00;;;;;;;25.20;10.73;;;10.00;99.90;;;;;;4948257;28;20389;-83
2022/05/03 05:13:28;;;;;;;23.92;10.20;;;10.20;99.90;;;;;;5024370;28;20399;-84
2022/05/03 05:16:23;;;;;;;23.58;11.23;;;10.30;99.90;;;;;;5040603;28;20368;-84
2022/05/03 05:19:36;;;;;;;14.27;8.80;;;10.60;99.90;;;;;;5007850;28;20389;-83
2022/05/03 05:22:05;;;;;;;13.48;8.20;;;10.70;99.90;;;;;;4944422;28;20742;-83
2022/05/03 05:24:33;;;;;;;13.23;8.13;;;10.80;99.90;;;;;;5007272;28;20421;-83
2022/05/03 05:27:04;;;;;;;17.58;9.25;;;10.90;99.90;;;;;;5020534;28;20467;-82
2022/05/03 05:29:37;;;;;;;18.55;8.18;;;11.00;99.90;;;;;;5022071;28;20382;-83
2022/05/03 05:32:03;;;;;;;14.23;8.40;;;11.00;99.90;;;;;;5040493;28;20375;-82
2022/05/03 05:34:29;;;;;;;14.75;8.32;;;11.10;99.90;;;;;;5024434;28;21328;-82
2022/05/03 05:36:54;;;;;;;12.40;8.30;;;11.10;99.90;;;;;;5022363;28;20421;-83
2022/05/03 05:39:23;;;;;;;9.00;7.60;;;11.10;99.90;;;;;;5040774;28;20371;-83
2022/05/03 05:41:59;;;;;;;8.75;7.85;;;11.40;99.90;;;;;;5041074;28;20379;-83
2022/05/03 05:44:25;;;;;;;8.90;6.97;;;11.70;99.90;;;;;;5042102;28;20382;-82
2022/05/03 05:46:52;;;;;;;8.05;6.93;;;11.60;99.90;;;;;;5042141;28;20386;-82
2022/05/03 05:49:18;;;;;;;7.47;6.45;;;11.60;99.90;;;;;;5023204;28;20436;-82
2022/05/03 05:51:45;;;;;;;7.93;6.90;;;11.60;99.90;;;;;;5023554;28;20423;-81
2022/05/03 05:54:11;;;;;;;9.95;6.70;;;11.80;99.90;;;;;;5021979;28;20417;-80
2022/05/03 05:56:36;;;;;;;7.57;6.85;;;12.00;99.90;;;;;;5041219;28;20376;-81
2022/05/03 05:59:02;;;;;;;10.82;6.50;;;12.20;99.90;;;;;;5041248;28;20373;-81
2022/05/03 06:01:41;;;;;;;16.40;7.30;;;12.30;99.90;;;;;;5021598;28;20417;-81
2022/05/03 06:04:08;;;;;;;16.58;7.50;;;12.50;99.90;;;;;;5039724;28;20736;-82
2022/05/03 06:06:36;;;;;;;16.70;7.40;;;12.70;99.90;;;;;;5039687;28;20377;-82
2022/05/03 06:09:04;;;;;;;12.02;6.60;;;12.90;99.90;;;;;;5040390;28;20392;-82
2022/05/03 06:11:29;;;;;;;20.95;7.13;;;13.10;99.90;;;;;;5041972;28;20873;-83
2022/05/03 06:13:55;;;;;;;10.63;4.93;;;13.40;99.90;;;;;;5022513;28;20530;-81
2022/05/03 06:16:21;;;;;;;6.45;4.72;;;13.60;99.90;;;;;;5024829;28;20373;-81
2022/05/03 06:18:47;;;;;;;6.22;4.43;;;13.30;99.90;;;;;;5022537;28;20376;-81
2022/05/03 06:21:13;;;;;;;5.53;4.80;;;13.10;99.90;;;;;;5056143;28;20383;-81
2022/05/03 06:23:42;;;;;;;5.45;4.38;;;13.10;99.90;;;;;;5053663;28;20408;-80
2022/05/03 06:26:09;;;;;;;5.03;4.47;;;13.20;99.90;;;;;;5055893;28;20712;-81
2022/05/03 06:28:35;;;;;;;5.78;4.55;;;13.30;99.90;;;;;;5056831;28;20380;-80
2022/05/03 06:31:04;;;;;;;24.25;6.43;;;13.30;99.90;;;;;;5042337;28;20376;-81
2022/05/03 06:33:29;;;;;;;7.63;5.15;;;13.20;99.90;;;;;;5025922;28;20391;-80
2022/05/03 06:35:55;;;;;;;6.27;4.53;;;13.10;99.90;;;;;;5039275;28;20388;-80
2022/05/03 06:38:20;;;;;;;7.55;4.35;;;13.10;99.90;;;;;;5041016;28;20887;-81
2022/05/03 06:40:46;;;;;;;5.30;4.40;;;13.20;99.90;;;;;;5042070;28;20366;-81
2022/05/03 06:43:12;;;;;;;6.10;4.07;;;13.40;99.90;;;;;;5040034;28;20369;-82
2022/05/03 06:45:37;;;;;;;4.72;4.10;;;13.60;99.90;;;;;;5043967;28;20403;-80
2022/05/03 06:48:06;;;;;;;6.87;4.00;;;13.50;99.90;;;;;;5043075;28;20783;-81
2022/05/03 06:50:32;;;;;;;5.30;4.10;;;13.60;99.90;;;;;;5044351;28;20368;-81
2022/05/03 06:52:57;;;;;;;5.45;3.80;;;13.70;99.90;;;;;;5043867;28;20379;-81
2022/05/03 06:55:23;;;;;;;5.13;3.47;;;13.90;99.90;;;;;;5042106;28;20405;-82
2022/05/03 06:57:49;;;;;;;5.85;3.60;;;14.10;99.90;;;;;;5039118;28;20446;-81
2022/05/03 07:00:15;;;;;;;5.15;3.30;;;14.70;99.90;;;;;;5041841;28;20401;-82
2022/05/03 07:02:42;;;;;;;4.80;2.97;;;;;;;;;;5040703;28;20516;-82
2022/05/03 07:05:08;;;;;;;5.10;2.90;;;15.20;99.90;;;;;;5021420;28;20483;-81
2022/05/03 07:07:35;;;;;;;4.33;3.73;;;15.10;98.80;;;;;;5042566;28;20373;-81
2022/05/03 07:10:02;;;;;;;4.70;2.70;;;14.90;99.10;;;;;;5041569;28;20356;-81
2022/05/03 07:12:28;;;;;;;3.95;2.53;;;15.20;98.10;;;;;;5046859;28;20454;-81
2022/05/03 07:15:08;;;;;;;3.73;2.27;;;15.30;98.20;;;;;;5043775;28;20885;-81
2022/05/03 07:23:03;;;;;;;2.60;1.60;;;;;;;;;;5039728;28;21207;-82
2022/05/03 07:25:30;;;;;;;3.20;1.60;;;15.50;94.60;;;;;;5041481;28;20379;-84
2022/05/03 07:27:56;;;;;;;4.28;1.77;;;;;;;;;;5043978;28;20380;-81
2022/05/03 07:30:21;;;;;;;6.50;1.92;;;15.50;94.50;;;;;;5040549;28;20372;-82
2022/05/03 07:32:47;;;;;;;3.50;1.60;;;15.30;93.60;;;;;;5023024;28;20881;-81
2022/05/03 07:35:13;;;;;;;3.72;1.80;;;15.20;93.40;;;;;;5022527;28;20549;-81
2022/05/03 07:37:39;;;;;;;4.30;2.42;;;15.30;93.80;;;;;;5042407;28;20376;-84
2022/05/03 07:40:07;;;;;;;5.43;2.92;;;15.40;95.10;;;;;;5027165;28;20451;-81
2022/05/03 07:42:32;;;;;;;2.75;2.05;;;15.60;96.20;;;;;;5044825;28;20409;-82
2022/05/03 07:44:58;;;;;;;2.92;2.22;;;16.00;94.70;;;;;;5044046;28;20430;-81
2022/05/03 07:47:24;;;;;;;5.00;2.10;;;16.10;94.40;;;;;;5044938;28;20376;-81
2022/05/03 07:49:50;;;;;;;5.40;2.30;;;16.30;93.90;;;;;;5027268;28;20378;-82
2022/05/03 07:52:15;;;;;;;3.77;2.30;;;16.20;93.40;;;;;;5044056;28;20405;-81
2022/05/03 07:54:42;;;;;;;2.72;2.42;;;15.80;94.80;;;;;;5045201;28;20411;-81
2022/05/03 07:57:09;;;;;;;5.20;2.40;;;16.00;93.60;;;;;;5043364;28;20490;-82
2022/05/03 07:59:34;;;;;;;4.05;2.20;;;16.10;94.60;;;;;;5042331;28;20378;-81
2022/05/03 08:02:00;;;;;;;3.63;1.83;;;16.40;94.10;;;;;;5044922;28;20414;-81
2022/05/03 08:04:26;;;;;;;3.78;2.10;;;16.70;92.90;;;;;;5044886;28;20478;-81
2022/05/03 08:06:52;;;;;;;4.20;2.22;;;16.70;91.90;;;;;;5044263;28;20731;-82
2022/05/03 08:09:18;;;;;;;3.65;2.05;;;16.60;92.00;;;;;;5042428;28;20447;-81
2022/05/03 08:11:43;;;;;;;4.68;2.20;;;16.70;92.10;;;;;;5046423;28;20862;-81
2022/05/03 08:14:09;;;;;;;5.17;2.00;;;16.90;92.00;;;;;;5045418;28;20496;-81
2022/05/03 08:16:35;;;;;;;7.53;2.40;;;17.00;92.50;;;;;;5028464;28;20409;-80
2022/05/03 08:19:01;;;;;;;5.63;2.40;;;17.20;92.20;;;;;;5046386;28;20399;-81
2022/05/03 08:21:27;;;;;;;5.85;2.28;;;17.70;92.10;;;;;;5047920;28;20425;-81
2022/05/03 08:23:53;;;;;;;2.95;2.13;;;18.00;90.20;;;;;;5030921;28;20488;-81
2022/05/03 08:26:20;;;;;;;4.70;2.20;;;18.20;89.10;;;;;;5045686;28;20362;-81
2022/05/03 08:28:46;;;;;;;4.78;2.50;;;18.20;90.20;;;;;;5048260;28;20383;-82
2022/05/03 08:31:12;;;;;;;4.32;2.90;;;18.40;90.20;;;;;;5044649;28;20374;-85
2022/05/03 08:33:38;;;;;;;5.82;3.08;;;18.00;86.00;;;;;;5027758;28;20475;-81
2022/05/03 08:36:04;;;;;;;6.13;3.10;;;17.30;89.00;;;;;;5043610;28;20381;-82
2022/05/03 08:44:00;;;;;;;4.60;3.10;;;17.70;88.60;;;;;;5043530;28;20889;-82
2022/05/03 08:46:25;;;;;;;4.63;3.17;;;17.60;89.60;;;;;;5043611;28;20384;-81
2022/05/03 08:48:58;;;;;;;5.53;3.20;;;17.70;89.50;;;;;;5040116;28;20381;-82
2022/05/03 08:51:27;;;;;;;7.88;2.97;;;17.70;87.20;;;;;;5041350;28;20388;-81
2022/05/03 08:53:52;;;;;;;7.10;3.33;;;17.40;88.40;;;;;;5042119;28;20409;-82
2022/05/03 08:56:19;;;;;;;8.27;3.65;;;17.40;90.00;;;;;;5042437;28;20882;-82
2022/05/03 08:58:45;;;;;;;3.40;2.50;;;17.60;88.20;;;;;;5044321;28;20414;-82
2022/05/03 09:01:11;;;;;;;4.68;2.67;;;17.60;86.40;;;;;;5025329;28;20404;-81
2022/05/03 09:03:37;;;;;;;5.40;2.80;;;17.40;87.90;;;;;;5043786;28;20866;-82
2022/05/03 09:06:06;;;;;;;4.65;2.75;;;17.60;87.50;;;;;;5027823;28;20868;-83
2022/05/03 09:08:33;;;;;;;3.72;2.50;;;17.50;86.40;;;;;;5042283;28;20465;-82
2022/05/03 09:11:02;;;;;;;12.13;3.72;;;17.60;90.30;;;;;;5042124;28;20399;-83
2022/05/03 09:13:28;;;;;;;4.63;2.77;;;17.90;91.50;;;;;;5045144;28;20443;-81
2022/05/03 09:16:08;;;;;;;4.57;2.63;;;18.20;89.10;;;;;;5028879;28;20385;-83
2022/05/03 09:18:34;;;;;;;6.00;2.72;;;18.30;88.30;;;;;;5042567;28;20385;-85
2022/05/03 09:23:48;;;;;;;5.03;2.70;;;18.00;84.10;;;;;;5046896;28;20407;-82
2022/05/03 09:26:30;;;;;;;3.40;2.20;;;18.10;87.10;;;;;;5025906;28;20385;-81
2022/05/03 09:29:01;;;;;;;4.10;2.60;;;18.30;83.80;;;;;;5042768;28;20534;-82
2022/05/03 09:31:30;;;;;;;3.30;2.45;;;17.80;83.50;;;;;;5043521;28;20938;-82
2022/05/03 09:33:57;;;;;;;2.85;1.52;;;17.20;84.00;;;;;;5042718;28;20393;-84
2022/05/03 09:36:23;;;;;;;2.13;1.60;;;17.20;81.50;;;;;;5041596;28;20370;-82
2022/05/03 09:38:51;;;;;;;2.50;1.60;;;16.70;79.80;;;;;;5042577;28;20380;-82
2022/05/03 09:41:17;;;;;;;2.95;1.90;;;16.80;82.00;;;;;;5042400;28;20904;-81
2022/05/03 09:44:08;;;;;;;3.47;1.70;;;16.80;79.50;;;;;;5042768;28;20405;-83
2022/05/03 09:46:53;;;;;;;3.30;1.92;;;16.80;81.50;;;;;;5041196;28;20457;-82
2022/05/03 09:49:39;;;;;;;3.58;2.10;;;17.00;83.70;;;;;;5025638;28;20383;-84
2022/05/03 09:52:06;;;;;;;3.93;2.00;;;16.90;82.20;;;;;;5043997;28;20401;-82
2022/05/03 09:54:52;;;;;;;2.38;2.00;;;16.90;82.70;;;;;;5041214;28;20415;-80
2022/05/03 09:57:24;;;;;;;3.90;1.80;;;17.00;83.40;;;;;;5025426;28;20405;-82
2022/05/03 09:59:51;;;;;;;3.95;2.22;;;17.00;82.20;;;;;;5041868;28;20437;-82
2022/05/03 10:02:18;;;;;;;6.53;2.37;;;17.10;83.40;;;;;;5046086;28;20939;-81
2022/05/03 10:04:46;;;;;;;5.90;2.33;;;17.00;88.30;;;;;;5029079;28;20488;-82
2022/05/03 10:07:12;;;;;;;5.53;1.98;;;17.50;88.20;;;;;;5028933;28;20466;-82
2022/05/03 10:09:42;;;;;;;4.10;2.20;;;18.10;87.30;;;;;;5025153;28;20463;-82
2022/05/03 10:12:11;;;;;;;3.87;1.90;;;18.50;81.10;;;;;;5041765;28;20376;-84
2022/05/03 10:14:40;;;;;;;3.40;2.30;;;18.40;80.60;;;;;;5026421;28;20413;-82
2022/05/03 10:20:40;;;;;;;2.70;1.90;;;18.30;84.70;;;;;;5044278;28;20368;-81
2022/05/03 10:23:25;;;;;;;3.40;1.80;;;18.50;85.50;;;;;;5043063;28;20396;-85
2022/05/03 10:25:55;;;;;;;2.90;2.00;;;18.50;77.70;;;;;;5041939;28;20416;-82
2022/05/03 10:28:21;;;;;;;2.05;1.80;;;18.00;81.20;;;;;;5043036;28;20377;-82
2022/05/03 10:31:04;;;;;;;3.30;2.07;;;17.90;83.30;;;;;;5040115;28;20373;-83
2022/05/03 10:33:30;;;;;;;31.90;5.18;;;17.90;83.30;;;;;;5027156;28;20396;-82
2022/05/03 10:35:58;;;;;;;2.83;1.40;;;17.90;81.60;;;;;;5025373;28;20393;-83
2022/05/03 10:38:40;;;;;;;2.10;1.80;;;18.10;80.30;;;;;;5023122;28;20481;-82
2022/05/03 10:41:08;;;;;;;3.10;1.75;;;18.10;80.00;;;;;;5044689;28;20975;-83
2022/05/03 10:43:35;;;;;;;2.40;1.50;;;18.00;80.50;;;;;;5039253;28;20389;-82
2022/05/03 10:46:22;;;;;;;1.90;1.40;;;17.80;80.10;;;;;;5042724;28;20389;-82
2022/05/03 10:49:13;;;;;;;2.28;1.60;;;17.90;83.10;;;;;;5030268;28;20462;-83
2022/05/03 10:51:39;;;;;;;3.17;1.42;;;17.90;82.20;;;;;;5057657;28;20394;-81
2022/05/03 10:54:06;;;;;;;2.53;1.30;;;18.20;84.20;;;;;;5055545;28;20400;-81
2022/05/03 10:56:32;;;;;;;2.35;1.48;;;18.40;80.10;;;;;;5044524;28;20381;-83
2022/05/03 10:59:13;;;;;;;2.80;1.50;;;18.30;81.60;;;;;;5058200;28;20381;-82
2022/05/03 11:02:04;;;;;;;1.52;1.33;;;18.20;79.00;;;;;;5056346;28;20977;-81
2022/05/03 11:04:30;;;;;;;2.45;1.40;;;18.20;80.90;;;;;;5038328;28;20412;-81
2022/05/03 11:06:56;;;;;;;1.95;1.40;;;18.30;81.40;;;;;;5058217;28;20395;-82
2022/05/03 11:09:34;;;;;;;2.42;1.27;;;18.20;83.50;;;;;;5044366;28;20400;-83
2022/05/03 11:12:02;;;;;;;1.27;1.00;;;18.30;81.80;;;;;;5043552;28;20392;-81
2022/05/03 11:14:28;;;;;;;1.77;1.38;;;18.10;84.00;;;;;;5046787;28;20801;-83
2022/05/03 11:17:12;;;;;;;1.67;1.10;;;18.00;82.10;;;;;;5043888;28;20387;-82
2022/05/03 11:19:50;;;;;;;1.98;1.48;;;17.90;81.30;;;;;;5046134;28;20452;-83
2022/05/03 11:22:17;;;;;;;1.90;1.30;;;17.90;82.40;;;;;;5044115;28;20456;-82
2022/05/03 11:24:44;;;;;;;3.28;1.50;;;18.00;84.00;;;;;;5045605;28;20383;-80
2022/05/03 11:27:11;;;;;;;2.08;1.45;;;18.10;86.50;;;;;;5027269;28;20393;-81
2022/05/03 11:29:41;;;;;;;2.58;1.10;;;18.50;85.90;;;;;;5026886;28;20762;-83
2022/05/03 11:32:07;;;;;;;1.95;1.27;;;18.80;82.10;;;;;;5030438;28;20405;-82
2022/05/03 11:34:34;;;;;;;2.25;1.08;;;18.70;83.90;;;;;;5024590;28;20436;-81
2022/05/03 11:37:01;;;;;;;1.77;1.07;;;18.80;81.70;;;;;;5045731;28;20370;-82
2022/05/03 11:39:27;;;;;;;2.07;1.30;;;18.90;82.30;;;;;;5029411;28;20379;-82
2022/05/03 11:41:53;;;;;;;9.68;2.45;;;18.30;81.70;;;;;;5044893;28;20491;-82
2022/05/03 11:44:19;;;;;;;19.35;3.00;;;18.40;83.80;;;;;;5027362;28;20537;-81
2022/05/03 11:46:47;;;;;;;3.00;1.60;;;18.50;82.50;;;;;;5046139;28;20411;-81
2022/05/03 11:49:14;;;;;;;2.40;1.30;;;18.50;83.00;;;;;;5028294;28;20389;-81
2022/05/03 11:57:24;;;;;;;2.20;1.40;;;18.40;82.20;;;;;;5043839;28;20353;-81
2022/05/03 11:59:58;;;;;;;2.90;1.30;;;18.30;82.70;;;;;;5042442;28;20499;-82
2022/05/03 12:02:34;;;;;;;2.47;1.77;;;18.60;83.80;;;;;;5028552;28;20384;-82
2022/05/03 12:05:15;;;;;;;3.67;1.65;;;19.00;82.50;;;;;;5045718;28;20381;-81
2022/05/03 12:07:47;;;;;;;3.10;1.70;;;19.30;80.90;;;;;;5043297;28;20378;-82
2022/05/03 12:10:37;;;;;;;4.05;1.90;;;19.60;81.80;;;;;;5042840;28;20381;-81
2022/05/03 12:13:17;;;;;;;3.28;1.45;;;19.70;82.50;;;;;;5043181;28;20818;-82
2022/05/03 12:15:48;;;;;;;2.53;1.60;;;19.80;78.90;;;;;;5044435;28;20370;-81
2022/05/03 12:18:21;;;;;;;2.42;1.13;;;19.60;80.40;;;;;;5043522;28;20379;-81
2022/05/03 12:21:16;;;;;;;2.28;1.17;;;19.80;79.50;;;;;;5042076;28;20375;-81
2022/05/03 12:23:47;;;;;;;4.00;1.70;;;20.10;79.20;;;;;;5028602;28;20394;-80
2022/05/03 12:26:25;;;;;;;1.60;1.30;;;;;;;;;;5023719;28;20417;-82
2022/05/03 12:28:56;;;;;;;2.45;1.45;;;19.50;80.00;;;;;;5042097;28;21055;-81
2022/05/03 12:31:26;;;;;;;2.63;1.70;;;19.40;81.10;;;;;;5042112;28;20375;-81
2022/05/03 12:33:55;;;;;;;1.40;1.30;;;19.40;81.20;;;;;;5041810;28;20401;-83
2022/05/03 12:36:46;;;;;;;3.67;1.75;;;19.10;82.70;;;;;;5042429;28;20400;-82
2022/05/03 12:39:16;;;;;;;1.33;1.23;;;19.10;99.90;;;;;;5056859;28;20378;-82
2022/05/03 12:41:43;;;;;;;1.65;1.20;;;19.40;81.30;;;;;;5022585;28;20389;-82
2022/05/03 12:44:11;;;;;;;2.38;1.20;;;;;;;;;;5040902;28;20432;-82
2022/05/03 12:46:37;;;;;;;2.67;1.40;;;19.50;81.00;;;;;;5043538;28;20395;-81
2022/05/03 12:49:06;;;;;;;2.40;1.03;;;19.10;81.70;;;;;;5043057;28;20457;-80
2022/05/03 12:51:32;;;;;;;5.73;1.70;;;19.00;83.30;;;;;;5026006;28;20369;-80
2022/05/03 12:54:03;;;;;;;2.10;1.70;;;18.90;85.00;;;;;;5045290;28;20391;-81
2022/05/03 12:59:13;;;;;;;2.30;1.50;;;19.20;87.60;;;;;;5042170;28;20909;-82
2022/05/03 13:01:39;;;;;;;8.20;2.23;;;19.50;83.30;;;;;;5046021;28;20392;-83
2022/05/03 13:04:05;;;;;;;1.40;1.30;;;19.70;85.10;;;;;;5041648;28;20412;-82
2022/05/03 13:06:30;;;;;;;3.60;1.35;;;19.80;83.10;;;;;;5044832;28;20375;-81
2022/05/03 13:08:56;;;;;;;2.53;1.30;;;19.60;82.30;;;;;;5025546;28;20400;-81
2022/05/03 13:11:22;;;;;;;1.70;1.13;;;19.40;84.10;;;;;;5045921;28;20387;-81
2022/05/03 13:13:49;;;;;;;1.55;1.30;;;19.60;86.20;;;;;;5045366;28;20393;-81
2022/05/03 13:16:14;;;;;;;1.05;1.00;;;20.00;84.20;;;;;;5026432;28;20389;-81
2022/05/03 13:18:40;;;;;;;1.97;1.17;;;20.30;82.70;;;;;;5026507;28;20382;-81
2022/05/03 13:21:06;;;;;;;1.33;1.23;;;20.30;81.00;;;;;;5036743;28;20384;-82
2022/05/03 13:23:32;;;;;;;3.50;1.20;;;20.40;81.30;;;;;;5040967;28;20401;-82
2022/05/03 13:25:57;;;;;;;2.35;1.40;;;20.50;82.60;;;;;;5043076;28;20422;-82
2022/05/03 13:28:23;;;;;;;3.27;1.70;;;20.60;82.80;;;;;;5038511;28;20387;-82
2022/05/03 13:30:50;;;;;;;2.22;2.03;;;20.50;84.00;;;;;;5043687;28;20390;-82
2022/05/03 13:33:16;;;;;;;3.80;2.10;;;;;;;;;;5043067;28;20437;-84
2022/05/03 13:41:30;;;;;;;3.40;1.52;;;19.00;87.80;;;;;;5001438;28;20363;-83
2022/05/03 13:43:58;;;;;;;2.83;1.60;;;19.10;86.50;;;;;;5000378;28;20387;-82
2022/05/03 13:46:23;;;;;;;2.45;1.55;;;19.20;84.80;;;;;;5019727;28;20863;-82
2022/05/03 13:48:49;;;;;;;2.67;1.60;;;19.00;85.50;;;;;;5023783;28;20419;-82
2022/05/03 13:51:15;;;;;;;2.93;1.70;;;19.00;88.50;;;;;;5023602;28;20372;-81
2022/05/03 13:53:41;;;;;;;5.95;1.75;;;19.10;87.20;;;;;;5041831;28;20401;-82
2022/05/03 13:56:14;;;;;;;3.22;1.42;;;19.10;87.80;;;;;;5044275;28;20391;-83
2022/05/03 13:58:41;;;;;;;3.35;1.42;;;19.40;85.90;;;;;;5019453;28;20393;-83
2022/05/03 14:01:07;;;;;;;2.07;1.40;;;19.80;84.40;;;;;;5041326;28;20870;-82
2022/05/03 14:03:32;;;;;;;2.88;1.65;;;20.20;98.60;;;;;;5026372;28;20468;-81
2022/05/03 14:06:03;;;;;;;23.73;3.58;;;19.90;85.90;;;;;;5026119;28;20379;-84
2022/05/03 14:08:28;;;;;;;2.67;1.40;;;19.80;86.90;;;;;;5021102;28;20389;-82
2022/05/03 14:10:54;;;;;;;2.78;2.38;;;20.00;88.00;;;;;;5042202;28;20425;-82
2022/05/03 14:13:20;;;;;;;2.80;2.28;;;19.80;85.90;;;;;;5022775;28;20435;-81
2022/05/03 14:15:45;;;;;;;2.55;2.10;;;19.40;87.10;;;;;;5039601;28;20460;-81
2022/05/03 14:18:11;;;;;;;5.32;2.13;;;19.30;87.20;;;;;;5041909;28;20476;-81
2022/05/03 14:20:37;;;;;;;3.73;2.10;;;19.60;88.10;;;;;;5041604;28;20368;-81
2022/05/03 14:23:02;;;;;;;3.28;2.00;;;19.50;87.70;;;;;;5040166;28;20370;-82
2022/05/03 14:25:29;;;;;;;3.83;2.10;;;19.70;88.50;;;;;;5023667;28;20387;-82
2022/05/03 14:27:54;;;;;;;3.70;2.20;;;19.40;89.40;;;;;;5022394;28;20394;-82
2022/05/03 14:30:20;;;;;;;2.35;2.00;;;19.20;88.80;;;;;;5023355;28;20811;-81
2022/05/03 14:32:47;;;;;;;4.35;2.20;;;19.10;90.20;;;;;;5042448;28;20395;-82
2022/05/03 14:35:14;;;;;;;4.15;2.25;;;19.10;89.40;;;;;;5023116;28;20408;-83
2022/05/03 14:37:40;;;;;;;3.53;2.20;;;19.00;88.30;;;;;;5039955;28;20376;-82
2022/05/03 14:40:07;;;;;;;3.42;1.98;;;18.90;88.50;;;;;;5041159;28;20415;-82
2022/05/03 14:42:33;;;;;;;1.98;1.80;;;18.90;90.50;;;;;;5021244;28;20873;-80
2022/05/03 14:44:58;;;;;;;2.77;2.20;;;19.00;89.00;;;;;;5038794;28;20500;-82
2022/05/03 14:47:24;;;;;;;3.47;2.30;;;19.00;89.00;;;;;;5021941;28;20886;-82
2022/05/03 14:49:50;;;;;;;5.30;2.35;;;18.80;89.50;;;;;;5042329;28;20554;-82
2022/05/03 14:52:17;;;;;;;10.80;3.13;;;18.60;89.60;;;;;;5038278;28;20377;-83
2022/05/03 14:54:45;;;;;;;3.10;2.00;;;18.50;89.80;;;;;;5041147;28;20399;-84
2022/05/03 15:02:59;;;;;;;3.70;1.98;;;18.30;90.90;;;;;;5037205;28;20420;-83
2022/05/03 15:05:30;;;;;;;3.20;1.73;;;18.20;90.10;;;;;;5022146;28;20396;-82
2022/05/03 15:07:57;;;;;;;2.67;1.63;;;18.10;90.10;;;;;;5035686;28;20390;-82
2022/05/03 15:10:22;;;;;;;3.93;2.10;;;17.80;90.80;;;;;;5041099;28;21117;-81
2022/05/03 15:12:49;;;;;;;2.00;1.73;;;17.60;91.00;;;;;;5039100;28;20463;-81
2022/05/03 15:15:16;;;;;;;2.30;1.73;;;17.80;91.30;;;;;;5040920;28;20403;-81
2022/05/03 15:17:50;;;;;;;2.33;1.85;;;17.90;90.30;;;;;;5022883;28;20967;-81